Time;durP1;ratioP1;P1;durP2;ratioP2;P2;SDS_P1;SDS_P2;PMS_P1;PMS_P2;Temp;Humidity;BMP_temperature;BMP_pressure;BME280_temperature;BME280_humidity;BME280_pressure;Samples;Min_cycle;Max_cycle;Signal;HPM_P1;HPM_P2
2023/10/06 00:00:09;;;;;;;10.20;5.65;;;;;;;10.46;100.00;101489.09;5085632;28;20044;-77
2023/10/06 00:06:12;;;;;;;13.52;6.25;;;;;;;10.41;100.00;101498.94;5087630;28;20048;-77
2023/10/06 00:15:35;;;;;;;12.70;6.20;;;;;;;10.21;100.00;101485.44;5078399;28;20159;-77
2023/10/06 00:18:23;;;;;;;12.32;6.45;;;;;;;10.27;100.00;101500.25;5075441;28;20408;-78
2023/10/06 00:20:56;;;;;;;9.63;5.90;;;;;;;10.16;100.00;101488.16;5072421;28;20040;-78
2023/10/06 00:23:30;;;;;;;16.33;6.85;;;;;;;10.02;100.00;101474.44;5080768;28;20520;-78
2023/10/06 00:26:00;;;;;;;10.95;6.00;;;;;;;10.19;100.00;101504.00;5082635;28;20693;-77
2023/10/06 00:28:32;;;;;;;12.68;6.40;;;;;;;10.19;100.00;101511.94;5080101;28;20044;-77
2023/10/06 00:31:23;;;;;;;11.23;6.50;;;;;;;10.21;100.00;101518.97;5078990;28;20047;-78
2023/10/06 00:33:53;;;;;;;15.77;7.28;;;;;;;10.12;100.00;101507.69;5077105;28;20070;-78
2023/10/06 00:36:29;;;;;;;14.20;6.18;;;;;;;10.18;100.00;101523.44;5074568;28;20222;-77
2023/10/06 00:38:57;;;;;;;10.57;6.03;;;;;;;10.16;100.00;101500.53;5074262;28;20052;-78
2023/10/06 00:41:28;;;;;;;8.73;5.93;;;;;;;10.23;100.00;101519.81;5073405;28;20392;-77
2023/10/06 00:43:56;;;;;;;10.73;6.10;;;;;;;10.19;100.00;101524.31;5055576;28;20045;-78
2023/10/06 00:46:26;;;;;;;12.50;6.60;;;;;;;10.04;100.00;101504.38;5075333;28;20055;-79
2023/10/06 00:48:59;;;;;;;13.07;6.80;;;;;;;10.00;100.00;101508.00;5075494;28;20046;-77
2023/10/06 00:51:29;;;;;;;11.13;5.90;;;;;;;10.00;100.00;101515.09;5070736;28;20055;-80
2023/10/06 00:53:58;;;;;;;13.38;6.63;;;;;;;9.99;100.00;101505.41;5072326;28;20083;-77
2023/10/06 00:56:28;;;;;;;13.60;6.72;;;;;;;9.97;100.00;101494.88;5074246;28;20391;-76
2023/10/06 00:58:57;;;;;;;15.38;6.80;;;;;;;10.04;100.00;101511.47;5072637;28;20052;-78
2023/10/06 01:01:27;;;;;;;13.63;7.07;;;;;;;9.94;100.00;101500.22;5059021;28;20102;-78
2023/10/06 01:04:00;;;;;;;10.57;6.47;;;;;;;9.96;100.00;101494.91;5060365;28;20047;-78
2023/10/06 01:06:35;;;;;;;12.63;6.55;;;;;;;9.99;100.00;101494.81;5077407;28;20052;-77
2023/10/06 01:09:14;;;;;;;11.63;6.35;;;;;;;9.84;100.00;101481.09;5075187;28;20118;-79
2023/10/06 01:11:45;;;;;;;12.35;6.95;;;;;;;9.94;100.00;101494.94;5071883;28;20044;-78
2023/10/06 01:14:14;;;;;;;;;;;;;;;9.95;100.00;101493.16;5056175;28;20118;-77
2023/10/06 01:16:49;;;;;;;12.73;6.25;;;;;;;9.95;100.00;101494.03;5074571;28;20368;-79
2023/10/06 01:19:25;;;;;;;16.00;6.18;;;;;;;9.92;100.00;101491.47;5059235;28;20037;-79
2023/10/06 01:21:56;;;;;;;9.45;5.80;;;;;;;9.93;100.00;101497.63;5058011;28;20052;-76
2023/10/06 01:24:26;;;;;;;10.68;5.82;;;;;;;9.88;100.00;101500.41;5057344;28;20076;-76
2023/10/06 01:26:58;;;;;;;11.20;6.40;;;;;;;9.83;100.00;101500.53;5058805;28;20463;-77
2023/10/06 01:29:30;;;;;;;10.70;6.20;;;;;;;9.79;100.00;101500.63;5079879;28;20045;-76
2023/10/06 01:32:05;;;;;;;13.48;6.70;;;;;;;9.74;100.00;101499.91;5073923;28;20115;-81
2023/10/06 01:34:37;;;;;;;15.02;7.32;;;;;;;9.73;100.00;101498.16;5069652;28;20048;-77
2023/10/06 01:37:07;;;;;;;9.95;6.55;;;;;;;9.68;100.00;101486.84;5056708;28;20523;-76
2023/10/06 01:39:37;;;;;;;11.43;6.57;;;;;;;9.83;100.00;101486.44;5067303;28;20119;-77
2023/10/06 01:42:11;;;;;;;12.90;6.32;;;;;;;9.85;100.00;101504.00;5049733;28;20509;-77
2023/10/06 01:44:41;;;;;;;14.10;6.22;;;;;;;9.80;100.00;101491.78;5077458;28;20049;-76
2023/10/06 01:47:11;;;;;;;12.82;6.30;;;;;;;9.73;100.00;101484.94;5098889;28;20048;-77
2023/10/06 01:49:43;;;;;;;10.60;6.38;;;;;;;9.72;100.00;101492.00;5074086;28;20656;-76
2023/10/06 01:52:19;;;;;;;11.32;6.22;;;;;;;9.77;100.00;101490.09;5059559;28;20044;-77
2023/10/06 01:54:56;;;;;;;8.52;5.90;;;;;;;9.80;100.00;101495.31;5075003;28;20109;-77
2023/10/06 01:57:27;;;;;;;13.43;6.30;;;;;;;9.69;100.00;101478.84;5056927;28;20045;-78
2023/10/06 01:59:56;;;;;;;11.18;6.20;;;;;;;9.71;100.00;101490.28;5068518;28;20058;-76
2023/10/06 02:02:27;;;;;;;11.65;5.95;;;;;;;9.61;100.00;101486.09;5068190;28;20055;-78
2023/10/06 02:04:59;;;;;;;11.48;6.40;;;;;;;9.53;100.00;101479.28;5066201;28;20052;-77
2023/10/06 02:07:27;;;;;;;11.02;5.47;;;;;;;9.59;100.00;101489.72;5090138;28;20048;-80
2023/10/06 02:09:59;;;;;;;11.18;6.22;;;;;;;9.56;100.00;101481.88;5055863;28;20048;-77
2023/10/06 02:12:27;;;;;;;8.70;5.95;;;;;;;9.50;100.00;101480.22;5055425;28;21960;-77
2023/10/06 02:14:56;;;;;;;12.07;6.32;;;;;;;9.36;100.00;101463.84;5036205;28;20064;-78
2023/10/06 02:17:25;;;;;;;10.60;6.10;;;;;;;9.47;100.00;101485.59;5071956;28;20060;-79
2023/10/06 02:19:53;;;;;;;8.13;5.75;;;;;;;9.42;100.00;101495.44;5072821;28;20044;-77
2023/10/06 02:22:23;;;;;;;8.55;5.97;;;;;;;9.30;100.00;101488.66;5068169;28;20048;-80
2023/10/06 02:24:51;;;;;;;12.50;5.73;;;;;;;9.41;100.00;101499.84;5077188;28;20054;-77
2023/10/06 02:27:21;;;;;;;9.68;5.90;;;;;;;9.41;100.00;101481.34;5058933;28;20052;-76
2023/10/06 02:29:50;;;;;;;10.20;6.20;;;;;;;9.32;100.00;101494.78;5052435;28;20059;-76
2023/10/06 02:32:18;;;;;;;13.10;6.43;;;;;;;9.19;100.00;101485.41;5053142;28;20052;-81
2023/10/06 02:34:49;;;;;;;11.32;6.15;;;;;;;9.18;100.00;101490.72;5065841;28;20045;-77
2023/10/06 02:37:23;;;;;;;10.10;6.18;;;;;;;9.22;100.00;101489.75;5077675;28;20063;-76
2023/10/06 02:39:51;;;;;;;9.82;5.95;;;;;;;9.25;100.00;101493.19;5069932;28;20076;-78
2023/10/06 02:42:23;;;;;;;8.93;5.90;;;;;;;9.18;100.00;101498.66;5053657;28;20052;-78
2023/10/06 02:44:53;;;;;;;10.35;6.00;;;;;;;9.04;100.00;101480.47;5068555;28;20062;-77
2023/10/06 02:47:21;;;;;;;9.63;6.07;;;;;;;9.04;100.00;101491.06;5094081;28;20051;-77
2023/10/06 02:49:59;;;;;;;10.63;6.43;;;;;;;9.01;100.00;101484.06;5069624;28;20043;-78
2023/10/06 02:52:38;;;;;;;10.43;6.13;;;;;;;8.85;100.00;101463.31;5063579;28;20099;-78
2023/10/06 02:55:10;;;;;;;10.15;6.18;;;;;;;8.97;100.00;101473.63;5072773;28;20059;-80
2023/10/06 02:57:50;;;;;;;10.27;6.15;;;;;;;8.97;100.00;101457.78;5083325;28;20074;-80
2023/10/06 03:00:31;;;;;;;8.23;5.22;;;;;;;9.10;100.00;101478.56;5087554;28;20048;-79
2023/10/06 03:03:12;;;;;;;8.82;5.57;;;;;;;9.11;100.00;101469.75;5076877;28;20052;-77
2023/10/06 03:05:49;;;;;;;10.70;6.03;;;;;;;9.18;100.00;101467.81;5072026;28;20093;-77
2023/10/06 03:08:20;;;;;;;9.18;6.05;;;;;;;9.15;100.00;101457.31;5094233;28;20036;-77
2023/10/06 03:10:49;;;;;;;10.70;5.72;;;;;;;9.24;100.00;101467.66;5081965;28;20060;-77
2023/10/06 03:13:24;;;;;;;9.80;6.10;;;;;;;9.23;100.00;101460.66;5077136;28;20045;-79
2023/10/06 03:15:52;;;;;;;11.57;6.38;;;;;;;9.31;100.00;101457.81;5079837;28;20044;-78
2023/10/06 03:18:21;;;;;;;9.60;6.22;;;;;;;9.33;100.00;101477.13;5080406;28;20081;-77
2023/10/06 03:20:49;;;;;;;11.02;6.30;;;;;;;9.33;100.00;101467.44;5066705;28;20060;-77
2023/10/06 03:23:26;;;;;;;14.13;6.38;;;;;;;9.33;100.00;101472.72;5077886;28;20044;-77
2023/10/06 03:25:58;;;;;;;11.40;6.30;;;;;;;9.32;100.00;101481.56;5108937;28;20501;-76
2023/10/06 03:28:36;;;;;;;11.57;6.30;;;;;;;9.32;100.00;101470.97;5087610;28;20046;-76
2023/10/06 03:31:21;;;;;;;9.95;6.03;;;;;;;9.34;100.00;101471.81;5085450;28;20048;-78
2023/10/06 03:33:55;;;;;;;12.30;6.40;;;;;;;9.36;100.00;101461.22;5083567;28;20058;-76
2023/10/06 03:36:37;;;;;;;9.98;6.18;;;;;;;9.27;100.00;101457.03;5069634;28;20040;-77
2023/10/06 03:39:10;;;;;;;10.68;6.18;;;;;;;9.33;100.00;101464.78;5083475;28;20093;-76
2023/10/06 03:41:44;;;;;;;11.95;6.32;;;;;;;9.03;100.00;101410.91;5109800;28;20135;-77
2023/10/06 03:44:17;;;;;;;11.00;6.03;;;;;;;9.33;100.00;101464.78;5082908;28;20048;-76
2023/10/06 03:46:50;;;;;;;13.70;6.60;;;;;;;9.34;100.00;101461.25;5087853;28;20048;-82
2023/10/06 03:49:19;;;;;;;13.38;6.88;;;;;;;9.32;100.00;101454.25;5083675;28;20052;-77
2023/10/06 03:52:09;;;;;;;16.60;6.82;;;;;;;9.34;100.00;101469.16;5083954;28;20052;-77
2023/10/06 03:54:39;;;;;;;15.60;8.02;;;;;;;9.33;100.00;101478.00;5079359;28;20369;-81
2023/10/06 03:57:07;;;;;;;13.85;6.40;;;;;;;9.26;100.00;101468.50;5079807;28;20131;-77
2023/10/06 03:59:39;;;;;;;11.13;6.10;;;;;;;9.17;100.00;101460.78;5081487;28;20051;-76
2023/10/06 04:02:08;;;;;;;11.68;6.22;;;;;;;9.22;100.00;101476.53;5087046;28;20044;-77
2023/10/06 04:04:39;;;;;;;9.98;5.68;;;;;;;9.23;100.00;101476.50;5072505;28;20040;-79
2023/10/06 04:07:07;;;;;;;9.63;5.78;;;;;;;9.27;100.00;101467.59;5080576;28;20048;-77
2023/10/06 04:09:40;;;;;;;8.70;5.88;;;;;;;9.25;100.00;101476.47;5082260;28;20074;-78
2023/10/06 04:12:08;;;;;;;12.30;5.82;;;;;;;9.14;100.00;101476.72;5087531;28;20139;-77
2023/10/06 04:14:40;;;;;;;11.68;6.50;;;;;;;8.69;100.00;101407.34;5078884;28;20109;-76
2023/10/06 04:17:12;;;;;;;10.02;5.93;;;;;;;8.70;100.00;101406.44;5081245;28;20071;-79
2023/10/06 04:19:41;;;;;;;;;;;;;;;8.97;100.00;101469.19;5076244;28;20044;-78
2023/10/06 04:22:09;;;;;;;15.15;6.53;;;;;;;8.93;100.00;101462.25;5073899;28;19920;-79
2023/10/06 04:24:40;;;;;;;15.05;6.53;;;;;;;8.68;100.00;101429.38;5074661;28;20078;-78
2023/10/06 04:27:09;;;;;;;10.45;5.93;;;;;;;8.86;100.00;101472.97;5079089;28;20040;-77
2023/10/06 04:29:41;;;;;;;13.50;6.15;;;;;;;8.60;100.00;101445.41;5089433;28;20044;-78
2023/10/06 04:32:13;;;;;;;12.30;6.28;;;;;;;8.58;100.00;101455.13;5083385;28;20146;-79
2023/10/06 04:34:42;;;;;;;12.52;6.30;;;;;;;8.48;100.00;101452.72;5072074;28;20069;-78
2023/10/06 04:37:13;;;;;;;11.88;6.53;;;;;;;8.61;100.00;101480.59;5072250;28;20076;-77
2023/10/06 04:39:46;;;;;;;11.55;6.28;;;;;;;8.61;100.00;101492.03;5054318;28;20099;-77
2023/10/06 04:42:19;;;;;;;12.10;6.57;;;;;;;8.58;100.00;101489.44;5040994;28;20132;-78
2023/10/06 04:44:49;;;;;;;12.23;7.07;;;;;;;8.33;100.00;101443.34;5049925;28;20588;-78
2023/10/06 04:47:20;;;;;;;13.40;7.05;;;;;;;8.56;100.00;101499.16;5054991;28;20144;-77
2023/10/06 04:49:52;;;;;;;12.52;6.82;;;;;;;8.54;100.00;101476.31;5055642;28;20280;-78
2023/10/06 04:52:20;;;;;;;13.25;6.35;;;;;;;8.68;100.00;101496.25;5037813;28;20045;-77
2023/10/06 04:54:49;;;;;;;11.68;5.93;;;;;;;8.57;100.00;101466.56;5047167;28;20051;-77
2023/10/06 04:57:19;;;;;;;12.77;6.82;;;;;;;8.75;100.00;101489.94;5054802;28;20053;-77
2023/10/06 04:59:50;;;;;;;14.45;7.32;;;;;;;8.78;100.00;101473.16;5054218;28;20049;-79
2023/10/06 05:02:22;;;;;;;11.98;6.70;;;;;;;8.74;100.00;101475.00;5057048;28;20052;-78
2023/10/06 05:04:52;;;;;;;11.70;6.88;;;;;;;8.68;100.00;101463.69;5069240;28;20067;-78
2023/10/06 05:07:20;;;;;;;11.48;6.68;;;;;;;8.48;100.00;101439.53;5040884;28;20076;-78
2023/10/06 05:09:52;;;;;;;9.93;6.20;;;;;;;8.61;100.00;101477.94;5055346;28;20175;-80
2023/10/06 05:12:21;;;;;;;11.25;6.70;;;;;;;8.57;100.00;101479.78;5053047;28;20792;-79
2023/10/06 05:14:52;;;;;;;10.80;7.07;;;;;;;8.54;100.00;101479.84;5036702;28;20063;-78
2023/10/06 05:17:22;;;;;;;13.20;6.22;;;;;;;8.55;100.00;101475.44;5056609;28;20048;-78
2023/10/06 05:19:51;;;;;;;10.63;6.60;;;;;;;8.53;100.00;101472.81;5057295;28;20049;-77
2023/10/06 05:22:22;;;;;;;12.25;7.45;;;;;;;8.57;100.00;101489.47;5054907;28;20048;-78
2023/10/06 05:24:55;;;;;;;10.65;6.90;;;;;;;8.54;100.00;101489.53;5053580;28;20071;-78
2023/10/06 05:27:24;;;;;;;16.23;7.88;;;;;;;8.49;100.00;101481.72;5050932;28;20046;-77
2023/10/06 05:29:54;;;;;;;12.90;7.28;;;;;;;8.42;100.00;101473.06;5054529;28;20041;-78
2023/10/06 05:32:27;;;;;;;17.10;7.65;;;;;;;8.50;100.00;101485.25;5055942;28;20079;-79
2023/10/06 05:34:57;;;;;;;15.45;7.38;;;;;;;8.50;100.00;101482.59;5053874;28;20133;-79
2023/10/06 05:37:26;;;;;;;13.18;6.97;;;;;;;8.52;100.00;101489.56;5054246;28;20061;-78
2023/10/06 05:39:58;;;;;;;15.52;7.32;;;;;;;8.54;100.00;101490.41;5055282;28;20144;-79
2023/10/06 05:42:27;;;;;;;14.70;7.97;;;;;;;8.15;100.00;101418.19;5039411;28;20073;-77
2023/10/06 05:44:59;;;;;;;17.40;7.68;;;;;;;8.34;100.00;101456.50;5051704;28;20049;-78
2023/10/06 05:47:41;;;;;;;13.00;7.82;;;;;;;8.57;100.00;101487.69;5056033;28;20056;-81
2023/10/06 05:50:12;;;;;;;15.80;7.60;;;;;;;8.66;100.00;101507.75;5057392;28;20048;-80
2023/10/06 05:52:41;;;;;;;10.20;6.80;;;;;;;8.67;100.00;101507.72;5056328;28;20045;-78
2023/10/06 05:55:12;;;;;;;14.27;7.10;;;;;;;8.68;100.00;101498.88;5032515;28;20071;-79
2023/10/06 05:57:48;;;;;;;11.35;6.63;;;;;;;8.66;100.00;101500.69;5048891;28;20045;-77
2023/10/06 06:00:25;;;;;;;12.52;6.97;;;;;;;8.69;100.00;101511.19;5052539;28;20041;-77
2023/10/06 06:02:58;;;;;;;12.45;6.55;;;;;;;8.65;100.00;101491.06;5047600;28;20052;-78
2023/10/06 06:05:29;;;;;;;11.02;6.80;;;;;;;8.71;100.00;101501.47;5060484;28;20128;-81
2023/10/06 06:08:05;;;;;;;12.23;7.28;;;;;;;8.76;100.00;101494.31;5049021;28;20041;-79
2023/10/06 06:10:34;;;;;;;17.90;7.68;;;;;;;8.78;100.00;101497.81;5053226;28;20056;-78
2023/10/06 06:13:04;;;;;;;11.07;6.90;;;;;;;8.81;100.00;101496.88;5054546;28;20060;-78
2023/10/06 06:15:42;;;;;;;15.45;7.65;;;;;;;8.88;100.00;101505.50;5041969;28;20072;-79
2023/10/06 06:18:13;;;;;;;12.70;7.57;;;;;;;8.58;100.00;101447.19;5052072;28;20049;-78
2023/10/06 06:20:42;;;;;;;13.27;7.40;;;;;;;8.90;100.00;101511.63;5053902;28;20038;-78
2023/10/06 06:23:12;;;;;;;15.35;7.45;;;;;;;8.96;100.00;101516.78;5051940;28;20131;-77
2023/10/06 06:25:41;;;;;;;16.40;8.20;;;;;;;8.96;100.00;101514.16;5052069;28;20061;-80
2023/10/06 06:28:12;;;;;;;13.52;8.38;;;;;;;9.01;100.00;101507.84;5051552;28;20045;-85
2023/10/06 06:30:47;;;;;;;12.30;7.25;;;;;;;9.09;100.00;101515.59;5045972;28;20041;-81
2023/10/06 06:33:17;;;;;;;15.07;8.32;;;;;;;8.97;100.00;101478.91;5047755;28;20457;-77
2023/10/06 06:35:50;;;;;;;13.38;7.78;;;;;;;9.21;100.00;101514.44;5037242;28;20286;-78
2023/10/06 06:38:18;;;;;;;15.00;7.78;;;;;;;9.07;100.00;101488.34;5077604;28;20053;-77
2023/10/06 06:40:49;;;;;;;15.32;8.00;;;;;;;9.29;100.00;101508.06;5073876;28;20063;-78
2023/10/06 06:43:19;;;;;;;16.52;7.75;;;;;;;9.33;100.00;101504.44;5086749;28;20045;-75
2023/10/06 06:45:55;;;;;;;18.63;9.85;;;;;;;9.48;100.00;101505.84;5071187;28;20457;-77
2023/10/06 06:48:24;;;;;;;19.98;9.30;;;;;;;9.54;100.00;101513.63;5064386;28;20055;-78
2023/10/06 06:50:55;;;;;;;15.85;8.55;;;;;;;9.63;100.00;101521.31;5076783;28;20094;-81
2023/10/06 06:53:28;;;;;;;17.20;9.00;;;;;;;9.67;100.00;101503.59;5060004;28;20044;-76
2023/10/06 06:55:58;;;;;;;15.57;9.02;;;;;;;9.89;100.00;101510.09;5071282;28;20516;-83
2023/10/06 06:58:32;;;;;;;15.23;8.65;;;;;;;10.15;100.00;101497.00;5058249;28;20051;-79
2023/10/06 07:01:05;;;;;;;20.20;9.27;;;;;;;10.44;100.00;101501.50;5060077;28;20104;-78
2023/10/06 07:03:37;;;;;;;19.95;9.48;;;;;;;10.64;100.00;101503.59;5075411;28;20048;-80
2023/10/06 07:06:12;;;;;;;22.40;10.10;;;;;;;10.93;100.00;101502.69;5067974;28;20594;-79
2023/10/06 07:08:43;;;;;;;21.10;9.90;;;;;;;11.14;100.00;101504.69;5054313;28;20068;-79
2023/10/06 07:11:12;;;;;;;19.42;9.07;;;;;;;11.22;100.00;101486.75;5074027;28;20131;-77
2023/10/06 07:13:45;;;;;;;17.63;9.63;;;;;;;10.98;100.00;101437.19;5057040;28;20052;-80
2023/10/06 07:16:15;;;;;;;23.63;10.85;;;;;;;11.25;100.00;101493.75;5050551;28;20083;-76
2023/10/06 07:18:46;;;;;;;24.10;10.85;;;;;;;11.25;100.00;101485.78;5071464;28;20041;-84
2023/10/06 07:21:17;;;;;;;23.35;10.93;;;;;;;11.40;100.00;101509.16;5053794;28;20114;-79
2023/10/06 07:23:45;;;;;;;23.98;10.77;;;;;;;11.22;100.00;101488.53;5073558;28;20131;-79
2023/10/06 07:26:17;;;;;;;27.25;10.95;;;;;;;11.48;100.00;101514.22;5066533;28;20041;-77
2023/10/06 07:28:51;;;;;;;25.40;11.65;;;;;;;11.36;100.00;101474.81;5074352;28;20102;-77
2023/10/06 07:31:26;;;;;;;28.90;11.88;;;;;;;11.59;100.00;101520.91;5056723;28;20083;-79
2023/10/06 07:33:57;;;;;;;22.45;11.60;;;;;;;11.38;100.00;101492.41;5071241;28;20076;-78
2023/10/06 07:36:27;;;;;;;23.50;12.23;;;;;;;11.44;100.00;101475.44;5069675;28;20140;-77
2023/10/06 07:38:57;;;;;;;26.45;11.63;;;;;;;11.65;100.00;101489.78;5067862;28;20136;-79
2023/10/06 07:41:26;;;;;;;22.38;11.27;;;;;;;11.67;100.00;101464.91;5072574;28;20045;-77
2023/10/06 07:43:56;;;;;;;20.50;11.88;;;;;;;11.98;100.00;101523.13;5076188;28;20062;-79
2023/10/06 07:46:29;;;;;;;25.00;12.13;;;;;;;11.82;100.00;101485.63;5048252;28;20045;-78
2023/10/06 07:49:00;;;;;;;22.08;11.68;;;;;;;12.20;100.00;101518.81;5066707;28;20127;-79
2023/10/06 07:51:28;;;;;;;22.40;13.15;;;;;;;12.30;100.00;101519.31;5084699;28;20104;-78
2023/10/06 07:54:00;;;;;;;19.25;12.60;;;;;;;12.38;100.00;101511.97;5074512;28;20052;-76
2023/10/06 07:56:32;;;;;;;22.05;12.98;;;;;;;12.41;100.00;101505.69;5074671;28;20067;-79
2023/10/06 07:59:04;;;;;;;21.73;13.30;;;;;;;12.74;100.00;101517.69;5079630;28;20087;-77
2023/10/06 08:01:35;;;;;;;20.80;11.25;;;;;;;13.03;100.00;101521.03;5086293;28;20419;-77
2023/10/06 08:04:04;;;;;;;19.88;11.18;;;;;;;13.33;100.00;101527.81;5085164;28;20120;-78
2023/10/06 08:06:33;;;;;;;15.65;10.00;;;;;;;13.63;100.00;101513.25;5059546;28;20045;-76
2023/10/06 08:12:09;;;;;;;16.33;9.63;;;;;;;14.47;100.00;101506.09;5078134;28;20053;-79
2023/10/06 08:14:38;;;;;;;20.20;11.20;;;;;;;14.48;100.00;101516.66;5077715;28;20112;-78
2023/10/06 08:17:09;;;;;;;20.65;11.93;;;;;;;14.09;100.00;101503.28;5076342;28;20096;-78
2023/10/06 08:19:38;;;;;;;21.17;11.77;;;;;;;13.82;100.00;101528.44;5082130;28;20049;-76
2023/10/06 08:22:07;;;;;;;20.42;11.65;;;;;;;13.44;100.00;101509.63;5078957;28;20041;-78
2023/10/06 08:24:35;;;;;;;19.05;10.88;;;;;;;13.39;100.00;101526.69;5071947;28;20041;-77
2023/10/06 08:27:07;;;;;;;20.65;11.65;;;;;;;13.18;100.00;101507.16;5072362;28;20037;-77
2023/10/06 08:29:34;;;;;;;17.92;11.00;;;;;;;12.85;100.00;101506.66;5073205;28;20040;-76
2023/10/06 08:32:03;;;;;;;23.88;11.27;;;;;;;12.77;100.00;101520.22;5067660;28;20425;-78
2023/10/06 08:34:39;;;;;;;21.80;11.18;;;;;;;12.77;100.00;101522.00;5074877;28;20112;-78
2023/10/06 08:37:11;;;;;;;26.50;12.27;;;;;;;12.81;100.00;101527.16;5075557;28;20036;-77
2023/10/06 08:39:39;;;;;;;25.00;12.20;;;;;;;12.83;100.00;101519.13;5063816;28;20151;-78
2023/10/06 08:42:12;;;;;;;21.67;11.13;;;;;;;12.81;100.00;101527.16;5075513;28;20140;-79
2023/10/06 08:44:44;;;;;;;20.27;11.70;;;;;;;12.71;100.00;101488.59;5077736;28;20515;-77
2023/10/06 08:47:16;;;;;;;25.00;11.70;;;;;;;12.87;100.00;101500.34;5075387;28;20134;-78
2023/10/06 08:50:01;;;;;;;23.00;12.07;;;;;;;13.15;100.00;101523.22;5069507;28;20079;-78
2023/10/06 08:52:32;;;;;;;;;;;;;;;13.33;100.00;101519.84;5078719;28;20062;-78
2023/10/06 08:55:01;;;;;;;19.52;10.45;;;;;;;13.57;100.00;101508.16;5079940;28;20007;-77
2023/10/06 08:57:30;;;;;;;21.13;11.68;;;;;;;13.60;100.00;101480.56;5075161;28;20046;-78
2023/10/06 08:59:59;;;;;;;25.48;13.40;;;;;;;14.01;100.00;101502.75;5095732;28;20100;-77
2023/10/06 09:02:31;;;;;;;24.65;14.27;;;;;;;14.24;100.00;101493.75;5060800;28;20048;-81
2023/10/06 09:05:13;;;;;;;21.55;13.30;;;;;;;14.48;100.00;101499.81;5058738;28;20044;-76
2023/10/06 09:07:58;;;;;;;21.67;13.80;;;;;;;14.65;100.00;101487.41;5070686;28;20050;-77
2023/10/06 09:10:29;;;;;;;20.20;13.20;;;;;;;14.83;100.00;101488.34;5078472;28;20044;-77
2023/10/06 09:13:02;;;;;;;25.38;14.98;;;;;;;14.91;100.00;101485.34;5089317;28;20052;-77
2023/10/06 09:15:35;;;;;;;27.15;14.35;;;;;;;14.97;100.00;101475.22;5050961;28;20054;-76
2023/10/06 09:18:27;;;;;;;19.42;13.40;;;;;;;15.00;100.00;101480.44;5070539;28;20046;-78
2023/10/06 09:21:12;;;;;;;22.67;13.63;;;;;;;15.07;100.00;101484.53;5088219;28;20040;-78
2023/10/06 09:23:41;;;;;;;26.55;14.32;;;;;;;15.13;100.00;101487.81;5058047;28;20040;-77
2023/10/06 09:26:12;;;;;;;29.13;16.02;;;;;;;15.27;100.00;101493.34;5076296;28;20048;-79
2023/10/06 09:28:55;;;;;;;22.65;15.10;;;;;;;15.38;100.00;101496.38;5070933;28;20501;-76
2023/10/06 09:31:37;;;;;;;25.67;15.40;;;;;;;15.47;100.00;101487.91;5076598;28;20075;-79
2023/10/06 09:34:07;;;;;;;24.35;14.85;;;;;;;15.53;100.00;101484.06;5064792;28;20130;-78
2023/10/06 09:36:42;;;;;;;21.92;13.93;;;;;;;15.60;100.00;101480.16;5089820;28;20154;-83
2023/10/06 09:39:29;;;;;;;22.77;13.63;;;;;;;15.57;100.00;101481.22;5076140;28;20069;-77
2023/10/06 09:42:01;;;;;;;23.10;14.52;;;;;;;15.31;100.00;101470.91;5092446;28;20246;-76
2023/10/06 09:44:33;;;;;;;19.90;12.88;;;;;;;15.40;100.00;101474.03;5096942;28;20063;-79
2023/10/06 09:47:03;;;;;;;22.52;13.88;;;;;;;15.57;100.00;101462.53;5077990;28;20055;-79
2023/10/06 09:49:33;;;;;;;18.55;11.70;;;;;;;15.68;100.00;101465.50;5078823;28;20051;-75
2023/10/06 09:52:09;;;;;;;27.15;13.70;;;;;;;15.68;100.00;101468.19;5067903;28;20385;-78
2023/10/06 09:54:38;;;;;;;19.83;11.20;;;;;;;15.64;100.00;101452.38;5078129;28;20169;-77
2023/10/06 09:57:11;;;;;;;20.48;12.60;;;;;;;15.60;100.00;101465.00;5069724;28;20466;-77
2023/10/06 09:59:41;;;;;;;18.83;11.70;;;;;;;15.70;100.00;101474.31;5057682;28;20052;-82
2023/10/06 10:02:14;;;;;;;19.85;12.73;;;;;;;15.81;100.00;101456.84;5079572;28;20040;-78
2023/10/06 10:04:46;;;;;;;20.05;11.60;;;;;;;15.83;100.00;101461.19;5075276;28;20086;-81
2023/10/06 10:07:23;;;;;;;22.80;12.32;;;;;;;15.92;100.00;101452.66;5068664;28;20115;-77
2023/10/06 10:09:52;;;;;;;17.98;12.18;;;;;;;15.97;100.00;101431.06;5075392;28;20481;-78
2023/10/06 10:12:39;;;;;;;21.20;11.90;;;;;;;16.20;100.00;101446.75;5091587;28;20082;-77
2023/10/06 10:15:25;;;;;;;17.55;11.15;;;;;;;16.22;100.00;101449.31;5092938;28;20040;-77
2023/10/06 10:18:04;;;;;;;17.65;10.95;;;;;;;16.38;100.00;101442.19;5063032;28;20079;-79
2023/10/06 10:20:33;;;;;;;17.38;11.43;;;;;;;16.55;100.00;101451.97;5076362;28;20044;-78
2023/10/06 10:23:04;;;;;;;15.00;10.75;;;;;;;16.58;100.00;101428.59;5077426;28;20047;-76
2023/10/06 10:25:37;;;;;;;17.15;9.52;;;;;;;16.71;100.00;101442.19;5078290;28;20055;-76
2023/10/06 10:28:17;;;;;;;13.45;7.78;;;;;;;16.83;100.00;101434.38;5069656;28;20048;-80
2023/10/06 10:30:59;;;;;;;16.27;6.60;;;;;;;16.65;100.00;101431.84;5087441;28;20097;-79
2023/10/06 10:33:34;;;;;;;14.07;7.32;;;;;;;16.50;100.00;101425.50;5092208;28;20043;-83
2023/10/06 10:36:21;;;;;;;15.05;7.40;;;;;;;16.32;100.00;101418.50;5096281;28;20067;-77
2023/10/06 10:39:12;;;;;;;17.40;8.65;;;;;;;16.36;100.00;101425.41;5083957;28;20068;-78
2023/10/06 10:41:47;;;;;;;14.05;8.50;;;;;;;16.58;100.00;101417.03;5083127;28;20041;-79
2023/10/06 10:44:23;;;;;;;15.27;9.25;;;;;;;16.66;100.00;101422.88;5074263;28;20102;-78
2023/10/06 10:46:56;;;;;;;19.77;9.18;;;;;;;16.82;100.00;101426.41;5085165;28;20047;-82
2023/10/06 10:49:32;;;;;;;11.63;7.43;;;;;;;16.62;100.00;101421.28;5073314;28;20032;-78
2023/10/06 10:52:07;;;;;;;13.52;7.28;;;;;;;16.92;100.00;101426.75;5066354;28;20044;-77
2023/10/06 10:54:42;;;;;;;12.70;7.03;;;;;;;16.92;100.00;101373.22;5055418;28;20532;-79
2023/10/06 10:57:14;;;;;;;10.15;6.18;;;;;;;17.23;100.00;101388.38;5067490;28;20055;-80
2023/10/06 11:00:14;;;;;;;14.88;7.00;;;;;;;17.51;100.00;101381.28;5053254;28;20330;-79
2023/10/06 11:03:09;;;;;;;12.73;6.63;;;;;;;17.66;100.00;101376.84;5058349;28;20040;-79
2023/10/06 11:05:39;;;;;;;9.52;5.25;;;;;;;17.94;100.00;101392.09;5055311;28;20055;-81
2023/10/06 11:08:20;;;;;;;10.57;5.03;;;;;;;18.12;100.00;101390.06;5068346;28;20127;-77
2023/10/06 11:10:59;;;;;;;10.93;5.18;;;;;;;18.29;100.00;101391.69;5071246;28;20064;-78
2023/10/06 11:13:31;;;;;;;12.95;5.55;;;;;;;18.35;96.57;101397.53;5054826;28;20047;-78
2023/10/06 11:16:23;;;;;;;10.50;4.90;;;;;;;18.09;97.27;101368.84;5073722;28;20045;-80
2023/10/06 11:18:54;;;;;;;10.23;4.88;;;;;;;18.11;99.08;101378.47;5064502;28;20044;-78
2023/10/06 11:21:30;;;;;;;10.00;5.22;;;;;;;18.24;98.11;101381.28;5070709;28;20044;-77
2023/10/06 11:24:01;;;;;;;13.38;5.22;;;;;;;18.33;98.07;101364.59;5054493;28;20199;-75
2023/10/06 11:26:33;;;;;;;9.38;5.00;;;;;;;18.40;96.50;101363.25;5057994;28;20048;-77
2023/10/06 11:29:04;;;;;;;10.48;4.50;;;;;;;18.46;96.74;101364.66;5070212;28;20041;-78
2023/10/06 11:31:32;;;;;;;11.55;4.65;;;;;;;18.52;97.10;101373.19;5056421;28;20049;-77
2023/10/06 11:34:06;;;;;;;9.55;4.53;;;;;;;18.49;95.03;101359.97;5069688;28;20047;-77
2023/10/06 11:36:35;;;;;;;13.07;5.20;;;;;;;18.60;91.84;101358.44;5051821;28;20075;-78
2023/10/06 11:39:08;;;;;;;9.35;4.35;;;;;;;18.62;87.88;101343.97;5049947;28;20037;-77
2023/10/06 11:41:38;;;;;;;8.57;3.75;;;;;;;18.52;90.28;101341.00;5053196;28;20045;-77
2023/10/06 11:44:07;;;;;;;12.87;4.17;;;;;;;18.49;91.63;101354.59;5057442;28;20135;-78
2023/10/06 11:46:48;;;;;;;11.03;3.87;;;;;;;18.39;92.51;101353.50;5051637;28;20060;-77
2023/10/06 11:49:20;;;;;;;10.07;5.20;;;;;;;18.50;89.54;101337.56;5043411;28;20043;-73
2023/10/06 11:51:51;;;;;;;9.00;4.07;;;;;;;18.64;87.76;101346.56;5043958;28;20046;-72